sensor_id;sensor_type;location;lat;lon;timestamp;pressure;altitude;pressure_sealevel;temperature;humidity
55466;BME280;41329;41.594;23.810;2023-06-14T00:01:32;94949.72;;;20.61;66.46
55466;BME280;41329;41.594;23.810;2023-06-14T00:04:00;94943.78;;;20.59;66.36
55466;BME280;41329;41.594;23.810;2023-06-14T00:06:26;94932.28;;;20.53;66.18
55466;BME280;41329;41.594;23.810;2023-06-14T00:08:52;94942.66;;;20.56;65.93
55466;BME280;41329;41.594;23.810;2023-06-14T00:11:17;94934.53;;;20.58;66.50
55466;BME280;41329;41.594;23.810;2023-06-14T00:13:43;94934.09;;;20.60;66.48
55466;BME280;41329;41.594;23.810;2023-06-14T00:16:08;94934.78;;;20.64;66.39
55466;BME280;41329;41.594;23.810;2023-06-14T00:18:33;94910.56;;;20.54;66.32
55466;BME280;41329;41.594;23.810;2023-06-14T00:20:59;94914.19;;;20.54;66.45
55466;BME280;41329;41.594;23.810;2023-06-14T00:23:25;94931.97;;;20.64;66.66
55466;BME280;41329;41.594;23.810;2023-06-14T00:25:50;94921.50;;;20.64;66.39
55466;BME280;41329;41.594;23.810;2023-06-14T00:28:16;94892.38;;;20.46;66.34
55466;BME280;41329;41.594;23.810;2023-06-14T00:30:41;94916.00;;;20.61;66.39
55466;BME280;41329;41.594;23.810;2023-06-14T00:33:09;94924.88;;;20.59;66.96
55466;BME280;41329;41.594;23.810;2023-06-14T00:35:34;94920.25;;;20.53;66.59
55466;BME280;41329;41.594;23.810;2023-06-14T00:38:00;94924.97;;;20.56;66.80
55466;BME280;41329;41.594;23.810;2023-06-14T00:40:26;94916.19;;;20.54;66.79
55466;BME280;41329;41.594;23.810;2023-06-14T00:42:52;94923.41;;;20.55;67.36
55466;BME280;41329;41.594;23.810;2023-06-14T00:45:17;94910.44;;;20.45;67.52
55466;BME280;41329;41.594;23.810;2023-06-14T00:47:43;94917.09;;;20.51;67.01
55466;BME280;41329;41.594;23.810;2023-06-14T00:50:09;94899.41;;;20.38;66.90
55466;BME280;41329;41.594;23.810;2023-06-14T00:52:35;94889.84;;;20.35;67.16
55466;BME280;41329;41.594;23.810;2023-06-14T00:55:01;94895.38;;;20.39;67.05
55466;BME280;41329;41.594;23.810;2023-06-14T00:57:27;94867.63;;;20.12;66.92
55466;BME280;41329;41.594;23.810;2023-06-14T00:59:52;94907.16;;;20.34;66.99
55466;BME280;41329;41.594;23.810;2023-06-14T01:02:19;94887.09;;;20.19;67.10
55466;BME280;41329;41.594;23.810;2023-06-14T01:04:46;94894.63;;;20.22;67.20
55466;BME280;41329;41.594;23.810;2023-06-14T01:07:25;94849.41;;;19.88;67.40
55466;BME280;41329;41.594;23.810;2023-06-14T01:12:58;94902.13;;;20.13;67.93
55466;BME280;41329;41.594;23.810;2023-06-14T01:15:30;94898.22;;;20.07;67.62
55466;BME280;41329;41.594;23.810;2023-06-14T01:17:55;94890.34;;;20.02;67.43
55466;BME280;41329;41.594;23.810;2023-06-14T01:20:28;94894.28;;;20.04;68.08
55466;BME280;41329;41.594;23.810;2023-06-14T01:22:54;94891.16;;;20.02;67.93
55466;BME280;41329;41.594;23.810;2023-06-14T01:25:21;94896.34;;;20.04;68.32
55466;BME280;41329;41.594;23.810;2023-06-14T01:27:52;94881.59;;;20.00;68.48
55466;BME280;41329;41.594;23.810;2023-06-14T01:30:20;94889.47;;;20.05;68.09
55466;BME280;41329;41.594;23.810;2023-06-14T01:32:47;94895.88;;;20.05;68.79
55466;BME280;41329;41.594;23.810;2023-06-14T01:35:13;94896.66;;;20.06;68.31
55466;BME280;41329;41.594;23.810;2023-06-14T01:37:40;94888.53;;;19.95;68.18
55466;BME280;41329;41.594;23.810;2023-06-14T01:40:07;94889.34;;;19.96;68.47
55466;BME280;41329;41.594;23.810;2023-06-14T01:42:36;94876.28;;;19.89;68.60
55466;BME280;41329;41.594;23.810;2023-06-14T01:45:02;94891.59;;;20.01;68.77
55466;BME280;41329;41.594;23.810;2023-06-14T01:47:29;94879.41;;;19.91;68.96
55466;BME280;41329;41.594;23.810;2023-06-14T01:49:55;94897.84;;;19.92;69.26
55466;BME280;41329;41.594;23.810;2023-06-14T01:52:20;94896.44;;;19.84;69.57
55466;BME280;41329;41.594;23.810;2023-06-14T01:54:47;94885.06;;;19.75;70.19
55466;BME280;41329;41.594;23.810;2023-06-14T01:57:12;94894.72;;;19.74;70.24
55466;BME280;41329;41.594;23.810;2023-06-14T01:59:38;94888.50;;;19.67;70.16
55466;BME280;41329;41.594;23.810;2023-06-14T02:02:03;94894.28;;;19.76;70.10
55466;BME280;41329;41.594;23.810;2023-06-14T02:04:29;94904.38;;;19.73;69.69
55466;BME280;41329;41.594;23.810;2023-06-14T02:06:54;94907.63;;;19.72;70.07
55466;BME280;41329;41.594;23.810;2023-06-14T02:09:19;94900.75;;;19.73;70.42
55466;BME280;41329;41.594;23.810;2023-06-14T02:11:45;94898.06;;;19.69;70.32
55466;BME280;41329;41.594;23.810;2023-06-14T02:14:10;94903.25;;;19.71;70.18
55466;BME280;41329;41.594;23.810;2023-06-14T02:16:37;94885.88;;;19.60;70.80
55466;BME280;41329;41.594;23.810;2023-06-14T02:19:06;94895.88;;;19.61;71.40
55466;BME280;41329;41.594;23.810;2023-06-14T02:21:32;94891.84;;;19.62;71.15
55466;BME280;41329;41.594;23.810;2023-06-14T02:23:57;94905.69;;;19.69;71.58
55466;BME280;41329;41.594;23.810;2023-06-14T02:26:23;94895.25;;;19.69;71.24
55466;BME280;41329;41.594;23.810;2023-06-14T02:28:49;94896.81;;;19.70;71.23
55466;BME280;41329;41.594;23.810;2023-06-14T02:31:14;94897.25;;;19.69;70.90
55466;BME280;41329;41.594;23.810;2023-06-14T02:33:41;94908.84;;;19.71;71.06
55466;BME280;41329;41.594;23.810;2023-06-14T02:36:06;94898.81;;;19.70;71.20
55466;BME280;41329;41.594;23.810;2023-06-14T02:38:32;94907.25;;;19.70;71.21
55466;BME280;41329;41.594;23.810;2023-06-14T02:40:58;94892.28;;;19.60;71.46
55466;BME280;41329;41.594;23.810;2023-06-14T02:43:24;94899.91;;;19.60;71.43
55466;BME280;41329;41.594;23.810;2023-06-14T02:45:50;94906.22;;;19.64;71.52
55466;BME280;41329;41.594;23.810;2023-06-14T02:48:15;94907.44;;;19.63;71.55
55466;BME280;41329;41.594;23.810;2023-06-14T02:50:41;94908.06;;;19.54;71.72
55466;BME280;41329;41.594;23.810;2023-06-14T02:53:07;94917.44;;;19.64;71.50
55466;BME280;41329;41.594;23.810;2023-06-14T02:55:32;94924.28;;;19.63;70.80
55466;BME280;41329;41.594;23.810;2023-06-14T02:57:57;94930.69;;;19.63;70.82
55466;BME280;41329;41.594;23.810;2023-06-14T03:00:23;94929.09;;;19.62;70.73
55466;BME280;41329;41.594;23.810;2023-06-14T03:02:48;94936.06;;;19.58;70.57
55466;BME280;41329;41.594;23.810;2023-06-14T03:05:14;94918.31;;;19.45;70.73
55466;BME280;41329;41.594;23.810;2023-06-14T03:07:39;94932.97;;;19.52;70.90
55466;BME280;41329;41.594;23.810;2023-06-14T03:10:10;94939.34;;;19.53;70.94
55466;BME280;41329;41.594;23.810;2023-06-14T03:12:38;94936.31;;;19.47;70.88
55466;BME280;41329;41.594;23.810;2023-06-14T03:15:03;94939.13;;;19.47;70.94
55466;BME280;41329;41.594;23.810;2023-06-14T03:17:30;94943.22;;;19.43;71.05
55466;BME280;41329;41.594;23.810;2023-06-14T03:19:59;94944.72;;;19.31;71.06
55466;BME280;41329;41.594;23.810;2023-06-14T03:22:24;94957.59;;;19.29;71.63
55466;BME280;41329;41.594;23.810;2023-06-14T03:24:51;94950.88;;;19.23;71.85
55466;BME280;41329;41.594;23.810;2023-06-14T03:27:17;94956.69;;;19.16;72.03
55466;BME280;41329;41.594;23.810;2023-06-14T03:29:43;94950.13;;;19.03;72.26
55466;BME280;41329;41.594;23.810;2023-06-14T03:32:09;94943.91;;;18.95;72.85
55466;BME280;41329;41.594;23.810;2023-06-14T03:34:34;94947.16;;;18.94;73.35
55466;BME280;41329;41.594;23.810;2023-06-14T03:37:00;94959.44;;;19.00;73.28
55466;BME280;41329;41.594;23.810;2023-06-14T03:39:26;94907.31;;;18.67;73.23
55466;BME280;41329;41.594;23.810;2023-06-14T03:41:51;94919.53;;;18.76;73.05
55466;BME280;41329;41.594;23.810;2023-06-14T03:44:18;94958.91;;;19.05;73.39
55466;BME280;41329;41.594;23.810;2023-06-14T03:46:44;94953.84;;;19.00;73.73
55466;BME280;41329;41.594;23.810;2023-06-14T03:49:10;94965.09;;;18.96;73.78
55466;BME280;41329;41.594;23.810;2023-06-14T03:51:36;94974.59;;;19.02;73.72
55466;BME280;41329;41.594;23.810;2023-06-14T03:54:02;94965.91;;;18.97;73.89
55466;BME280;41329;41.594;23.810;2023-06-14T03:56:27;94953.28;;;18.89;74.06
55466;BME280;41329;41.594;23.810;2023-06-14T03:58:52;94949.59;;;18.92;74.33
55466;BME280;41329;41.594;23.810;2023-06-14T04:01:18;94964.88;;;19.07;74.26
55466;BME280;41329;41.594;23.810;2023-06-14T04:03:43;94969.63;;;19.10;74.19
55466;BME280;41329;41.594;23.810;2023-06-14T04:06:09;94973.75;;;19.21;74.63
55466;BME280;41329;41.594;23.810;2023-06-14T04:08:34;94970.91;;;19.25;74.61
55466;BME280;41329;41.594;23.810;2023-06-14T04:11:00;94958.53;;;19.22;74.67
55466;BME280;41329;41.594;23.810;2023-06-14T04:13:26;94977.06;;;19.36;74.33
55466;BME280;41329;41.594;23.810;2023-06-14T04:15:51;94957.16;;;19.30;74.28
55466;BME280;41329;41.594;23.810;2023-06-14T04:18:17;94971.38;;;19.39;73.77
55466;BME280;41329;41.594;23.810;2023-06-14T04:20:43;94976.56;;;19.41;73.96
55466;BME280;41329;41.594;23.810;2023-06-14T04:23:17;94982.94;;;19.41;73.62
55466;BME280;41329;41.594;23.810;2023-06-14T04:25:47;94968.91;;;19.41;73.50
55466;BME280;41329;41.594;23.810;2023-06-14T04:28:15;94977.50;;;19.50;73.63
55466;BME280;41329;41.594;23.810;2023-06-14T04:30:42;94973.03;;;19.53;73.69
55466;BME280;41329;41.594;23.810;2023-06-14T04:33:08;94969.63;;;19.45;73.33
55466;BME280;41329;41.594;23.810;2023-06-14T04:35:35;94984.63;;;19.55;73.41
55466;BME280;41329;41.594;23.810;2023-06-14T04:38:01;94945.06;;;19.33;73.47
55466;BME280;41329;41.594;23.810;2023-06-14T04:40:30;94989.53;;;19.67;73.27
55466;BME280;41329;41.594;23.810;2023-06-14T04:42:55;94987.88;;;19.69;73.11
55466;BME280;41329;41.594;23.810;2023-06-14T04:45:20;94978.59;;;19.56;72.40
55466;BME280;41329;41.594;23.810;2023-06-14T04:47:47;94984.44;;;19.46;72.05
55466;BME280;41329;41.594;23.810;2023-06-14T04:50:12;95000.59;;;19.58;72.16
55466;BME280;41329;41.594;23.810;2023-06-14T04:52:38;95003.84;;;19.56;72.33
55466;BME280;41329;41.594;23.810;2023-06-14T04:55:03;95004.84;;;19.46;72.45
55466;BME280;41329;41.594;23.810;2023-06-14T04:57:29;95006.28;;;19.54;72.73
55466;BME280;41329;41.594;23.810;2023-06-14T04:59:54;94999.38;;;19.59;73.11
55466;BME280;41329;41.594;23.810;2023-06-14T05:02:23;95009.44;;;19.40;73.08
55466;BME280;41329;41.594;23.810;2023-06-14T05:04:50;95018.50;;;19.28;73.74
55466;BME280;41329;41.594;23.810;2023-06-14T05:07:15;95022.84;;;19.33;73.85
55466;BME280;41329;41.594;23.810;2023-06-14T05:09:40;95020.22;;;19.42;73.86
55466;BME280;41329;41.594;23.810;2023-06-14T05:12:06;95015.63;;;19.32;74.42
55466;BME280;41329;41.594;23.810;2023-06-14T05:14:35;94998.91;;;19.09;75.14
55466;BME280;41329;41.594;23.810;2023-06-14T05:17:01;95007.81;;;19.23;75.16
55466;BME280;41329;41.594;23.810;2023-06-14T05:19:28;95015.19;;;19.33;75.02
55466;BME280;41329;41.594;23.810;2023-06-14T05:21:53;94984.97;;;19.05;75.23
55466;BME280;41329;41.594;23.810;2023-06-14T05:24:19;95024.25;;;19.21;75.58
55466;BME280;41329;41.594;23.810;2023-06-14T05:26:45;95019.66;;;19.31;75.77
55466;BME280;41329;41.594;23.810;2023-06-14T05:29:10;95027.22;;;19.34;75.64
55466;BME280;41329;41.594;23.810;2023-06-14T05:31:36;95026.34;;;19.37;75.34
55466;BME280;41329;41.594;23.810;2023-06-14T05:34:01;95033.47;;;19.22;76.12
55466;BME280;41329;41.594;23.810;2023-06-14T05:36:27;95009.97;;;19.16;76.57
55466;BME280;41329;41.594;23.810;2023-06-14T05:38:53;95020.09;;;19.10;76.46
55466;BME280;41329;41.594;23.810;2023-06-14T05:41:25;95033.06;;;19.04;77.30
55466;BME280;41329;41.594;23.810;2023-06-14T05:43:51;95030.78;;;18.99;77.99
55466;BME280;41329;41.594;23.810;2023-06-14T05:46:16;95033.59;;;19.15;78.27
55466;BME280;41329;41.594;23.810;2023-06-14T05:48:47;95014.91;;;19.28;78.28
55466;BME280;41329;41.594;23.810;2023-06-14T05:51:12;94999.50;;;19.36;76.56
55466;BME280;41329;41.594;23.810;2023-06-14T05:53:38;95035.25;;;19.32;75.73
55466;BME280;41329;41.594;23.810;2023-06-14T05:56:03;95023.78;;;19.42;75.75
55466;BME280;41329;41.594;23.810;2023-06-14T05:58:28;95018.59;;;19.25;76.21
55466;BME280;41329;41.594;23.810;2023-06-14T06:00:54;95019.09;;;19.20;75.43
55466;BME280;41329;41.594;23.810;2023-06-14T06:03:19;95029.59;;;19.35;75.56
55466;BME280;41329;41.594;23.810;2023-06-14T06:05:46;95024.59;;;19.43;75.09
55466;BME280;41329;41.594;23.810;2023-06-14T06:08:11;95035.22;;;19.51;75.63
55466;BME280;41329;41.594;23.810;2023-06-14T06:10:37;95018.22;;;19.58;74.97
55466;BME280;41329;41.594;23.810;2023-06-14T06:13:02;95032.09;;;19.81;73.92
55466;BME280;41329;41.594;23.810;2023-06-14T06:15:27;95034.22;;;19.93;73.95
55466;BME280;41329;41.594;23.810;2023-06-14T06:17:53;95040.53;;;20.13;73.24
55466;BME280;41329;41.594;23.810;2023-06-14T06:20:18;95043.28;;;20.17;72.73
55466;BME280;41329;41.594;23.810;2023-06-14T06:22:43;95032.75;;;20.21;72.09
55466;BME280;41329;41.594;23.810;2023-06-14T06:25:09;95031.56;;;20.18;71.94
55466;BME280;41329;41.594;23.810;2023-06-14T06:27:34;95041.22;;;20.33;72.26
55466;BME280;41329;41.594;23.810;2023-06-14T06:30:03;95025.94;;;20.34;72.61
55466;BME280;41329;41.594;23.810;2023-06-14T06:32:28;95028.47;;;20.45;71.93
55466;BME280;41329;41.594;23.810;2023-06-14T06:34:53;95037.41;;;20.56;71.13
55466;BME280;41329;41.594;23.810;2023-06-14T06:37:19;95041.59;;;20.64;70.87
55466;BME280;41329;41.594;23.810;2023-06-14T06:39:44;95040.75;;;20.51;69.87
55466;BME280;41329;41.594;23.810;2023-06-14T06:42:10;95042.34;;;20.52;71.07
55466;BME280;41329;41.594;23.810;2023-06-14T06:44:36;95038.69;;;20.67;70.43
55466;BME280;41329;41.594;23.810;2023-06-14T06:47:01;95036.28;;;20.82;69.46
55466;BME280;41329;41.594;23.810;2023-06-14T06:49:27;95035.56;;;20.65;69.87
55466;BME280;41329;41.594;23.810;2023-06-14T06:52:04;95043.13;;;20.97;69.11
55466;BME280;41329;41.594;23.810;2023-06-14T06:54:30;95025.81;;;20.98;67.84
55466;BME280;41329;41.594;23.810;2023-06-14T06:56:56;95035.44;;;20.97;68.37
55466;BME280;41329;41.594;23.810;2023-06-14T06:59:21;95030.81;;;20.91;67.82
55466;BME280;41329;41.594;23.810;2023-06-14T07:01:46;95024.00;;;21.04;67.42
55466;BME280;41329;41.594;23.810;2023-06-14T07:04:12;95025.25;;;21.16;68.29
55466;BME280;41329;41.594;23.810;2023-06-14T07:06:38;95020.00;;;21.30;67.80
55466;BME280;41329;41.594;23.810;2023-06-14T07:09:03;95029.81;;;21.38;67.05
55466;BME280;41329;41.594;23.810;2023-06-14T07:11:31;95022.28;;;21.48;67.69
55466;BME280;41329;41.594;23.810;2023-06-14T07:13:57;95029.50;;;21.61;65.75
55466;BME280;41329;41.594;23.810;2023-06-14T07:16:22;94974.53;;;21.19;65.50
55466;BME280;41329;41.594;23.810;2023-06-14T07:18:48;95027.47;;;21.49;64.55
55466;BME280;41329;41.594;23.810;2023-06-14T07:21:14;95030.50;;;21.67;66.12
55466;BME280;41329;41.594;23.810;2023-06-14T07:23:39;95028.84;;;21.70;66.01
55466;BME280;41329;41.594;23.810;2023-06-14T07:26:04;94997.31;;;21.75;65.76
55466;BME280;41329;41.594;23.810;2023-06-14T07:28:30;95029.19;;;21.97;64.68
55466;BME280;41329;41.594;23.810;2023-06-14T07:30:55;95021.97;;;21.96;64.92
55466;BME280;41329;41.594;23.810;2023-06-14T07:33:21;95018.78;;;22.06;62.61
55466;BME280;41329;41.594;23.810;2023-06-14T07:35:46;95009.13;;;22.07;62.29
55466;BME280;41329;41.594;23.810;2023-06-14T07:38:13;95017.09;;;22.21;63.38
55466;BME280;41329;41.594;23.810;2023-06-14T07:40:39;95017.84;;;22.22;61.24
55466;BME280;41329;41.594;23.810;2023-06-14T07:43:04;95005.47;;;22.19;61.77
55466;BME280;41329;41.594;23.810;2023-06-14T07:45:31;95017.94;;;22.43;61.27
55466;BME280;41329;41.594;23.810;2023-06-14T07:47:56;95019.06;;;22.58;61.36
55466;BME280;41329;41.594;23.810;2023-06-14T07:50:22;95024.19;;;22.72;60.99
55466;BME280;41329;41.594;23.810;2023-06-14T07:52:47;95023.72;;;22.74;58.58
55466;BME280;41329;41.594;23.810;2023-06-14T07:55:14;95000.00;;;22.50;59.20
55466;BME280;41329;41.594;23.810;2023-06-14T07:57:40;95022.03;;;22.76;58.67
55466;BME280;41329;41.594;23.810;2023-06-14T08:00:06;95025.63;;;22.98;59.97
55466;BME280;41329;41.594;23.810;2023-06-14T08:02:32;95035.16;;;23.14;57.58
55466;BME280;41329;41.594;23.810;2023-06-14T08:04:57;95035.25;;;23.23;55.27
55466;BME280;41329;41.594;23.810;2023-06-14T08:07:23;95041.34;;;23.43;56.88
55466;BME280;41329;41.594;23.810;2023-06-14T08:09:49;95033.38;;;23.50;55.07
55466;BME280;41329;41.594;23.810;2023-06-14T08:12:14;95041.75;;;23.63;53.83
55466;BME280;41329;41.594;23.810;2023-06-14T08:14:41;95014.56;;;23.56;53.74
55466;BME280;41329;41.594;23.810;2023-06-14T08:17:07;95029.69;;;23.62;53.97
55466;BME280;41329;41.594;23.810;2023-06-14T08:19:32;95036.03;;;23.75;53.35
55466;BME280;41329;41.594;23.810;2023-06-14T08:21:58;95033.50;;;23.77;52.88
55466;BME280;41329;41.594;23.810;2023-06-14T08:24:23;95028.56;;;23.90;53.19
55466;BME280;41329;41.594;23.810;2023-06-14T08:26:54;95020.19;;;24.08;53.44
55466;BME280;41329;41.594;23.810;2023-06-14T08:29:21;95023.69;;;24.21;52.14
55466;BME280;41329;41.594;23.810;2023-06-14T08:31:47;95019.91;;;24.24;51.10
55466;BME280;41329;41.594;23.810;2023-06-14T08:34:12;95032.03;;;24.34;51.58
55466;BME280;41329;41.594;23.810;2023-06-14T08:36:38;95034.72;;;24.46;51.34
55466;BME280;41329;41.594;23.810;2023-06-14T08:39:03;95030.34;;;24.54;50.80
55466;BME280;41329;41.594;23.810;2023-06-14T08:41:29;95010.03;;;24.47;50.21
55466;BME280;41329;41.594;23.810;2023-06-14T08:43:55;95025.19;;;24.62;50.82
55466;BME280;41329;41.594;23.810;2023-06-14T08:46:21;94989.31;;;24.41;50.11
55466;BME280;41329;41.594;23.810;2023-06-14T08:48:51;95024.75;;;24.81;50.87
55466;BME280;41329;41.594;23.810;2023-06-14T08:51:20;95022.22;;;25.01;50.59
55466;BME280;41329;41.594;23.810;2023-06-14T08:53:52;95017.50;;;25.16;47.17
55466;BME280;41329;41.594;23.810;2023-06-14T08:56:18;95010.25;;;25.24;47.66
55466;BME280;41329;41.594;23.810;2023-06-14T08:58:46;95022.00;;;25.59;50.14
55466;BME280;41329;41.594;23.810;2023-06-14T09:01:13;95024.50;;;25.75;48.85
55466;BME280;41329;41.594;23.810;2023-06-14T09:03:40;95009.81;;;25.94;47.84
55466;BME280;41329;41.594;23.810;2023-06-14T09:06:08;95014.91;;;26.14;49.38
55466;BME280;41329;41.594;23.810;2023-06-14T09:08:40;95024.50;;;26.16;45.96
55466;BME280;41329;41.594;23.810;2023-06-14T09:11:06;95009.16;;;25.90;45.82
55466;BME280;41329;41.594;23.810;2023-06-14T09:13:31;95002.63;;;25.75;45.64
55466;BME280;41329;41.594;23.810;2023-06-14T09:15:57;94992.31;;;25.36;44.44
55466;BME280;41329;41.594;23.810;2023-06-14T09:18:42;95009.72;;;25.62;47.77
55466;BME280;41329;41.594;23.810;2023-06-14T09:21:13;94990.03;;;25.67;45.49
55466;BME280;41329;41.594;23.810;2023-06-14T09:23:44;94998.56;;;25.49;44.26
55466;BME280;41329;41.594;23.810;2023-06-14T09:26:12;94994.50;;;25.50;45.34
55466;BME280;41329;41.594;23.810;2023-06-14T09:28:43;95001.34;;;25.76;46.64
55466;BME280;41329;41.594;23.810;2023-06-14T09:31:10;95000.53;;;25.76;50.16
55466;BME280;41329;41.594;23.810;2023-06-14T09:33:36;94968.13;;;25.17;50.05
55466;BME280;41329;41.594;23.810;2023-06-14T09:36:02;95006.34;;;25.04;51.13
55466;BME280;41329;41.594;23.810;2023-06-14T09:38:28;94999.06;;;24.58;50.45
55466;BME280;41329;41.594;23.810;2023-06-14T09:40:57;94999.63;;;24.26;52.73
55466;BME280;41329;41.594;23.810;2023-06-14T09:43:23;94994.66;;;24.39;52.35
55466;BME280;41329;41.594;23.810;2023-06-14T09:45:50;94982.38;;;24.42;51.32
55466;BME280;41329;41.594;23.810;2023-06-14T09:48:16;95006.81;;;24.75;50.29
55466;BME280;41329;41.594;23.810;2023-06-14T09:50:45;95003.50;;;24.68;49.61
55466;BME280;41329;41.594;23.810;2023-06-14T09:53:12;95003.03;;;24.69;49.89
55466;BME280;41329;41.594;23.810;2023-06-14T09:55:40;94995.97;;;24.74;49.85
55466;BME280;41329;41.594;23.810;2023-06-14T09:58:08;94981.34;;;24.84;50.00
55466;BME280;41329;41.594;23.810;2023-06-14T10:00:34;94987.81;;;24.94;50.64
55466;BME280;41329;41.594;23.810;2023-06-14T10:03:14;94987.16;;;24.99;50.48
55466;BME280;41329;41.594;23.810;2023-06-14T10:05:45;94985.41;;;25.19;49.97
55466;BME280;41329;41.594;23.810;2023-06-14T10:08:15;94980.56;;;25.11;49.23
55466;BME280;41329;41.594;23.810;2023-06-14T10:10:42;94990.13;;;25.13;49.43
55466;BME280;41329;41.594;23.810;2023-06-14T10:13:08;94981.63;;;25.22;49.74
55466;BME280;41329;41.594;23.810;2023-06-14T10:15:48;94987.59;;;25.42;49.92
55466;BME280;41329;41.594;23.810;2023-06-14T10:21:08;94975.13;;;25.58;48.32
55466;BME280;41329;41.594;23.810;2023-06-14T10:23:41;94968.94;;;25.68;46.78
55466;BME280;41329;41.594;23.810;2023-06-14T10:26:08;94982.38;;;25.91;47.45
55466;BME280;41329;41.594;23.810;2023-06-14T10:28:37;94984.91;;;25.98;48.81
55466;BME280;41329;41.594;23.810;2023-06-14T10:31:09;94985.09;;;25.86;48.25
55466;BME280;41329;41.594;23.810;2023-06-14T10:33:56;94978.97;;;25.78;46.44
55466;BME280;41329;41.594;23.810;2023-06-14T10:36:26;94965.84;;;25.48;49.40
55466;BME280;41329;41.594;23.810;2023-06-14T10:39:01;94982.56;;;25.28;50.76
55466;BME280;41329;41.594;23.810;2023-06-14T10:41:29;94985.22;;;25.50;51.18
55466;BME280;41329;41.594;23.810;2023-06-14T10:44:31;94962.84;;;25.61;51.19
55466;BME280;41329;41.594;23.810;2023-06-14T10:47:00;94981.69;;;25.64;49.41
55466;BME280;41329;41.594;23.810;2023-06-14T10:49:43;94982.84;;;25.48;50.29
55466;BME280;41329;41.594;23.810;2023-06-14T10:52:10;94981.56;;;25.58;49.14
55466;BME280;41329;41.594;23.810;2023-06-14T10:55:08;94989.06;;;25.79;49.02
55466;BME280;41329;41.594;23.810;2023-06-14T10:57:37;94964.22;;;25.65;49.60
55466;BME280;41329;41.594;23.810;2023-06-14T11:00:05;94985.38;;;25.97;49.26
55466;BME280;41329;41.594;23.810;2023-06-14T11:05:08;94981.47;;;26.18;47.49
55466;BME280;41329;41.594;23.810;2023-06-14T11:08:12;94992.91;;;26.32;48.40
55466;BME280;41329;41.594;23.810;2023-06-14T11:10:42;94983.31;;;26.30;48.41
55466;BME280;41329;41.594;23.810;2023-06-14T11:13:08;94973.78;;;26.18;48.27
55466;BME280;41329;41.594;23.810;2023-06-14T11:15:35;94971.06;;;26.47;47.31
55466;BME280;41329;41.594;23.810;2023-06-14T11:18:05;94952.16;;;26.44;46.11
55466;BME280;41329;41.594;23.810;2023-06-14T11:20:33;94952.38;;;26.64;46.58
55466;BME280;41329;41.594;23.810;2023-06-14T11:23:01;94954.09;;;26.85;44.48
55466;BME280;41329;41.594;23.810;2023-06-14T11:25:27;94959.97;;;26.96;46.37
55466;BME280;41329;41.594;23.810;2023-06-14T11:27:56;94943.50;;;26.86;46.05
55466;BME280;41329;41.594;23.810;2023-06-14T11:30:22;94954.78;;;26.80;45.25
55466;BME280;41329;41.594;23.810;2023-06-14T11:32:49;94956.06;;;26.94;44.95
55466;BME280;41329;41.594;23.810;2023-06-14T11:35:16;94956.38;;;27.10;46.26
55466;BME280;41329;41.594;23.810;2023-06-14T11:37:42;94928.16;;;26.92;44.84
55466;BME280;41329;41.594;23.810;2023-06-14T11:40:16;94949.03;;;27.04;45.63
55466;BME280;41329;41.594;23.810;2023-06-14T11:42:44;94943.88;;;27.17;45.15
55466;BME280;41329;41.594;23.810;2023-06-14T11:45:15;94940.69;;;27.00;45.00
55466;BME280;41329;41.594;23.810;2023-06-14T11:47:41;94946.75;;;26.79;46.22
55466;BME280;41329;41.594;23.810;2023-06-14T11:50:07;94945.88;;;26.87;46.66
55466;BME280;41329;41.594;23.810;2023-06-14T11:52:34;94944.22;;;26.95;46.12
55466;BME280;41329;41.594;23.810;2023-06-14T11:54:59;94951.72;;;26.84;46.17
55466;BME280;41329;41.594;23.810;2023-06-14T11:57:26;94910.41;;;26.45;46.21
55466;BME280;41329;41.594;23.810;2023-06-14T11:59:51;94959.78;;;26.85;46.72
55466;BME280;41329;41.594;23.810;2023-06-14T12:02:18;94917.16;;;26.71;46.00
55466;BME280;41329;41.594;23.810;2023-06-14T12:04:47;94961.69;;;26.79;46.12
55466;BME280;41329;41.594;23.810;2023-06-14T12:07:15;94962.16;;;26.63;46.13
55466;BME280;41329;41.594;23.810;2023-06-14T12:09:43;94958.25;;;26.28;46.64
55466;BME280;41329;41.594;23.810;2023-06-14T12:12:35;94912.16;;;25.86;48.53
55466;BME280;41329;41.594;23.810;2023-06-14T12:15:03;94946.72;;;26.08;49.29
55466;BME280;41329;41.594;23.810;2023-06-14T12:17:34;94947.03;;;26.34;47.91
55466;BME280;41329;41.594;23.810;2023-06-14T12:20:05;94939.47;;;26.54;48.11
55466;BME280;41329;41.594;23.810;2023-06-14T12:22:33;94958.09;;;26.55;47.13
55466;BME280;41329;41.594;23.810;2023-06-14T12:24:59;94953.19;;;26.56;47.08
55466;BME280;41329;41.594;23.810;2023-06-14T12:27:25;94947.94;;;26.40;46.65
55466;BME280;41329;41.594;23.810;2023-06-14T12:30:03;94945.53;;;26.24;46.42
55466;BME280;41329;41.594;23.810;2023-06-14T12:32:30;94940.88;;;26.12;46.12
55466;BME280;41329;41.594;23.810;2023-06-14T12:34:55;94940.34;;;25.90;46.97
55466;BME280;41329;41.594;23.810;2023-06-14T12:37:21;94935.44;;;25.90;46.82
55466;BME280;41329;41.594;23.810;2023-06-14T12:39:46;94939.56;;;25.89;46.87
55466;BME280;41329;41.594;23.810;2023-06-14T12:42:16;94936.22;;;26.00;46.47
55466;BME280;41329;41.594;23.810;2023-06-14T12:44:41;94934.25;;;26.15;46.58
55466;BME280;41329;41.594;23.810;2023-06-14T12:47:07;94941.13;;;26.23;45.76
55466;BME280;41329;41.594;23.810;2023-06-14T12:49:33;94943.31;;;26.28;45.82
55466;BME280;41329;41.594;23.810;2023-06-14T12:52:07;94938.94;;;26.41;46.57
55466;BME280;41329;41.594;23.810;2023-06-14T12:54:35;94943.66;;;26.44;44.91
55466;BME280;41329;41.594;23.810;2023-06-14T12:57:01;94930.69;;;26.52;45.33
55466;BME280;41329;41.594;23.810;2023-06-14T12:59:26;94947.59;;;26.70;45.74